createdAt,value
2018-07-27T00:00:56.523Z,10.70
2018-07-27T00:01:56.462Z,10.30
2018-07-27T00:02:56.403Z,9.10
2018-07-27T00:03:56.345Z,12.90
2018-07-27T00:04:56.286Z,9.30
2018-07-27T00:05:56.228Z,10.50
2018-07-27T00:06:56.170Z,9.00
2018-07-27T00:07:56.111Z,10.30
2018-07-27T00:08:56.051Z,9.90
2018-07-27T00:09:55.996Z,9.60
2018-07-27T00:10:55.935Z,9.40
2018-07-27T00:11:55.877Z,9.80
2018-07-27T00:12:55.823Z,8.70
2018-07-27T00:13:55.763Z,11.40
2018-07-27T00:14:55.702Z,8.90
2018-07-27T00:15:55.642Z,8.90
2018-07-27T00:16:55.584Z,9.90
2018-07-27T00:17:55.533Z,8.90
2018-07-27T00:18:55.466Z,13.60
2018-07-27T00:19:55.405Z,9.10
2018-07-27T00:20:55.348Z,9.40
2018-07-27T00:21:55.291Z,10.10
2018-07-27T00:22:55.232Z,10.90
2018-07-27T00:23:55.172Z,10.20
2018-07-27T00:24:55.114Z,11.30
2018-07-27T00:25:55.055Z,9.80
2018-07-27T00:26:55.036Z,10.10
2018-07-27T00:27:54.936Z,9.50
2018-07-27T00:28:54.878Z,9.70
2018-07-27T00:29:54.819Z,11.90
2018-07-27T00:30:54.761Z,9.90
2018-07-27T00:31:54.701Z,10.10
2018-07-27T00:32:54.687Z,9.50
2018-07-27T00:33:54.582Z,10.50
2018-07-27T00:34:54.527Z,11.30
2018-07-27T00:35:54.540Z,9.60
2018-07-27T00:36:54.406Z,12.50
2018-07-27T00:37:54.351Z,11.30
2018-07-27T00:38:54.291Z,9.80
2018-07-27T00:39:54.233Z,10.10
2018-07-27T00:40:54.172Z,10.50
2018-07-27T00:41:54.114Z,10.50
2018-07-27T00:42:54.057Z,9.90
2018-07-27T00:43:53.996Z,9.10
2018-07-27T00:44:53.937Z,9.00
2018-07-27T00:45:53.879Z,9.30
2018-07-27T00:46:54.760Z,10.10
2018-07-27T00:47:53.761Z,9.30
2018-07-27T00:48:53.714Z,9.50
2018-07-27T00:49:53.644Z,11.80
2018-07-27T00:50:53.587Z,9.80
2018-07-27T00:51:53.526Z,9.90
2018-07-27T00:52:53.466Z,11.80
2018-07-27T00:53:53.447Z,10.50
2018-07-27T00:54:53.349Z,10.00
2018-07-27T00:55:53.290Z,9.30
2018-07-27T00:56:53.232Z,9.90
2018-07-27T00:57:53.173Z,10.60
2018-07-27T00:58:53.116Z,10.10
2018-07-27T00:59:53.054Z,9.50
2018-07-27T01:00:52.995Z,10.30
2018-07-27T01:01:52.936Z,10.20
2018-07-27T01:02:52.878Z,10.30
2018-07-27T01:03:52.815Z,10.00
2018-07-27T01:04:52.761Z,8.80
2018-07-27T01:05:52.699Z,9.60
2018-07-27T01:06:52.645Z,9.10
2018-07-27T01:07:52.584Z,12.10
2018-07-27T01:08:52.524Z,9.90
2018-07-27T01:09:52.465Z,8.00
2018-07-27T01:10:52.407Z,10.50
2018-07-27T01:11:52.348Z,9.00
2018-07-27T01:12:52.288Z,10.90
2018-07-27T01:13:52.231Z,10.00
2018-07-27T01:14:52.171Z,9.60
2018-07-27T01:15:52.115Z,8.50
2018-07-27T01:16:52.055Z,9.40
2018-07-27T01:17:51.994Z,10.00
2018-07-27T01:18:51.935Z,9.30
2018-07-27T01:19:51.877Z,10.40
2018-07-27T01:20:51.817Z,11.70
2018-07-27T01:21:51.759Z,10.10
2018-07-27T01:22:51.700Z,12.50
2018-07-27T01:23:51.640Z,10.00
2018-07-27T01:24:51.582Z,11.20
2018-07-27T01:25:51.522Z,8.60
2018-07-27T01:26:51.464Z,8.60
2018-07-27T01:27:51.405Z,9.40
2018-07-27T01:28:51.344Z,11.10
2018-07-27T01:29:51.464Z,9.00
2018-07-27T01:30:51.228Z,8.10
2018-07-27T01:31:51.308Z,8.00
2018-07-27T01:32:51.150Z,11.20
2018-07-27T01:33:51.052Z,8.10
2018-07-27T01:34:50.994Z,9.30
2018-07-27T01:35:50.931Z,9.20
2018-07-27T01:36:50.873Z,8.00
2018-07-27T01:37:50.854Z,9.40
2018-07-27T01:38:50.756Z,9.70
2018-07-27T01:39:50.697Z,10.80
2018-07-27T01:40:50.638Z,9.20
2018-07-27T01:41:50.580Z,8.80
2018-07-27T01:42:50.521Z,8.40
2018-07-27T01:43:50.461Z,9.20
2018-07-27T01:44:50.402Z,11.10
2018-07-27T01:45:50.343Z,9.10
2018-07-27T01:46:50.286Z,9.30
2018-07-27T01:47:50.227Z,8.70
2018-07-27T01:48:50.166Z,10.60
2018-07-27T01:49:50.108Z,8.10
2018-07-27T01:50:50.052Z,9.60
2018-07-27T01:51:49.990Z,8.30
2018-07-27T01:52:49.932Z,8.80
2018-07-27T01:53:49.872Z,8.80
2018-07-27T01:54:49.813Z,10.30
2018-07-27T01:55:49.754Z,8.30
2018-07-27T01:56:49.696Z,7.90
2018-07-27T01:57:49.636Z,8.00
2018-07-27T01:58:49.577Z,8.20
2018-07-27T01:59:49.515Z,7.90
2018-07-27T02:00:49.459Z,9.60
2018-07-27T02:01:49.401Z,8.20
2018-07-27T02:02:49.344Z,9.50
2018-07-27T02:03:49.283Z,8.20
2018-07-27T02:04:49.223Z,9.10
2018-07-27T02:05:49.165Z,8.40
2018-07-27T02:06:49.107Z,8.50
2018-07-27T02:07:49.048Z,8.80
2018-07-27T02:08:48.989Z,7.30
2018-07-27T02:09:48.931Z,8.40
2018-07-27T02:10:48.871Z,8.70
2018-07-27T02:11:48.814Z,8.30
2018-07-27T02:12:48.752Z,7.90
2018-07-27T02:13:48.694Z,9.90
2018-07-27T02:14:48.634Z,8.80
2018-07-27T02:15:48.576Z,7.90
2018-07-27T02:16:48.518Z,8.50
2018-07-27T02:17:48.460Z,8.30
2018-07-27T02:18:48.401Z,11.00
2018-07-27T02:19:48.342Z,7.60
2018-07-27T02:20:48.282Z,9.70
2018-07-27T02:21:48.220Z,10.00
2018-07-27T02:22:48.163Z,9.40
2018-07-27T02:23:48.105Z,8.50
2018-07-27T02:24:48.051Z,8.00
2018-07-27T02:25:47.988Z,7.90
2018-07-27T02:26:47.930Z,10.10
2018-07-27T02:27:47.868Z,8.60
2018-07-27T02:28:47.810Z,7.80
2018-07-27T02:29:47.750Z,8.20
2018-07-27T02:30:47.694Z,7.50
2018-07-27T02:31:47.633Z,8.10
2018-07-27T02:32:47.576Z,10.20
2018-07-27T02:33:47.574Z,8.00
2018-07-27T02:34:47.469Z,8.30
2018-07-27T02:35:47.404Z,8.80
2018-07-27T02:36:47.340Z,11.80
2018-07-27T02:37:47.280Z,8.70
2018-07-27T02:38:47.221Z,8.00
2018-07-27T02:39:47.167Z,8.40
2018-07-27T02:40:47.105Z,8.40
2018-07-27T02:41:47.048Z,8.30
2018-07-27T02:42:46.992Z,8.80
2018-07-27T02:43:46.928Z,9.10
2018-07-27T02:44:46.869Z,10.60
2018-07-27T02:45:46.810Z,9.40
2018-07-27T02:46:46.756Z,11.50
2018-07-27T02:47:46.694Z,8.00
2018-07-27T02:48:46.635Z,9.10
2018-07-27T02:49:46.574Z,8.60
2018-07-27T02:50:46.518Z,9.10
2018-07-27T02:51:46.456Z,8.10
2018-07-27T02:52:46.406Z,7.80
2018-07-27T02:53:46.338Z,9.90
2018-07-27T02:54:46.280Z,7.80
2018-07-27T02:55:46.225Z,8.30
2018-07-27T02:56:46.163Z,8.30
2018-07-27T02:57:46.109Z,8.10
2018-07-27T02:58:46.046Z,9.30
2018-07-27T02:59:45.987Z,8.30
2018-07-27T03:00:45.929Z,8.20
2018-07-27T03:01:45.869Z,9.10
2018-07-27T03:02:45.812Z,8.60
2018-07-27T03:03:45.750Z,9.00
2018-07-27T03:04:45.692Z,10.40
2018-07-27T03:05:45.633Z,8.80
2018-07-27T03:06:45.575Z,8.10
2018-07-27T03:07:45.572Z,9.50
2018-07-27T03:08:45.457Z,8.60
2018-07-27T03:09:45.461Z,9.70
2018-07-27T03:10:45.339Z,8.70
2018-07-27T03:11:45.280Z,10.00
2018-07-27T03:12:45.221Z,8.50
2018-07-27T03:13:45.165Z,11.30
2018-07-27T03:14:45.115Z,9.60
2018-07-27T03:15:45.046Z,8.50
2018-07-27T03:16:44.991Z,9.70
2018-07-27T03:17:44.929Z,9.20
2018-07-27T03:18:44.870Z,8.70
2018-07-27T03:19:44.809Z,9.30
2018-07-27T03:20:44.750Z,9.50
2018-07-27T03:21:44.693Z,9.30
2018-07-27T03:22:44.635Z,10.80
2018-07-27T03:23:44.574Z,9.20
2018-07-27T03:24:44.523Z,9.60
2018-07-27T03:25:44.456Z,9.70
2018-07-27T03:26:44.400Z,9.80
2018-07-27T03:27:44.341Z,8.80
2018-07-27T03:28:44.281Z,10.00
2018-07-27T03:29:44.229Z,10.30
2018-07-27T03:30:44.169Z,8.80
2018-07-27T03:31:44.104Z,9.00
2018-07-27T03:32:44.049Z,10.50
2018-07-27T03:33:43.989Z,8.50
2018-07-27T03:34:43.929Z,9.30
2018-07-27T03:35:43.871Z,9.30
2018-07-27T03:36:43.813Z,9.30
2018-07-27T03:37:43.754Z,9.30
2018-07-27T03:38:43.696Z,8.40
2018-07-27T03:39:43.635Z,11.80
2018-07-27T03:40:43.578Z,9.40
2018-07-27T03:41:43.519Z,9.00
2018-07-27T03:42:43.460Z,9.30
2018-07-27T03:43:43.438Z,10.50
2018-07-27T03:44:43.341Z,11.50
2018-07-27T03:45:43.286Z,9.40
2018-07-27T03:46:43.226Z,10.10
2018-07-27T03:47:43.166Z,9.20
2018-07-27T03:48:43.106Z,9.10
2018-07-27T03:49:43.051Z,10.00
2018-07-27T03:50:42.990Z,9.10
2018-07-27T03:51:42.934Z,9.80
2018-07-27T03:52:42.873Z,10.90
2018-07-27T03:53:42.815Z,9.40
2018-07-27T03:54:42.755Z,9.20
2018-07-27T03:55:42.697Z,9.40
2018-07-27T03:56:42.640Z,9.40
2018-07-27T03:57:42.580Z,9.70
2018-07-27T03:58:42.524Z,9.80
2018-07-27T03:59:42.463Z,9.30
2018-07-27T04:00:42.421Z,9.30
2018-07-27T04:01:42.342Z,9.50
2018-07-27T04:02:42.287Z,10.80
2018-07-27T04:03:42.230Z,9.30
2018-07-27T04:04:42.167Z,9.60
2018-07-27T04:05:42.110Z,9.60
2018-07-27T04:06:42.051Z,8.80
2018-07-27T04:07:41.995Z,9.20
2018-07-27T04:08:41.974Z,10.00
2018-07-27T04:09:41.876Z,9.80
2018-07-27T04:10:41.816Z,10.20
2018-07-27T04:11:41.759Z,10.30
2018-07-27T04:12:41.699Z,10.30
2018-07-27T04:13:41.639Z,10.60
2018-07-27T04:14:41.580Z,10.10
2018-07-27T04:15:41.524Z,11.10
2018-07-27T04:16:41.464Z,9.90
2018-07-27T04:17:41.405Z,11.90
2018-07-27T04:18:41.347Z,11.80
2018-07-27T04:19:41.287Z,10.80
2018-07-27T04:20:41.228Z,10.10
2018-07-27T04:21:41.169Z,10.20
2018-07-27T04:22:41.112Z,13.60
2018-07-27T04:23:41.053Z,12.30
2018-07-27T04:24:40.996Z,10.90
2018-07-27T04:25:40.937Z,9.70
2018-07-27T04:26:40.877Z,9.20
2018-07-27T04:27:40.817Z,9.40
2018-07-27T04:28:40.759Z,9.70
2018-07-27T04:29:40.701Z,9.90
2018-07-27T04:30:40.641Z,9.40
2018-07-27T04:31:40.582Z,9.00
2018-07-27T04:32:40.527Z,9.50
2018-07-27T04:33:40.466Z,9.60
2018-07-27T04:34:40.408Z,9.20
2018-07-27T04:35:40.357Z,9.20
2018-07-27T04:36:40.291Z,9.80
2018-07-27T04:37:40.230Z,10.20
2018-07-27T04:38:40.172Z,9.80
2018-07-27T04:39:40.113Z,9.70
2018-07-27T04:40:40.052Z,9.50
2018-07-27T04:41:39.995Z,9.80
2018-07-27T04:42:39.938Z,9.50
2018-07-27T04:43:39.877Z,9.90
2018-07-27T04:44:39.818Z,11.40
2018-07-27T04:45:39.760Z,9.80
2018-07-27T04:46:39.703Z,11.80
2018-07-27T04:47:39.641Z,9.50
2018-07-27T04:48:39.584Z,9.90
2018-07-27T04:49:39.526Z,10.70
2018-07-27T04:50:39.472Z,12.40
2018-07-27T04:51:39.406Z,9.80
2018-07-27T04:52:39.351Z,9.70
2018-07-27T04:53:39.290Z,9.50
2018-07-27T04:54:39.231Z,9.60
2018-07-27T04:55:39.170Z,11.20
2018-07-27T04:56:39.173Z,11.10
2018-07-27T04:57:39.055Z,10.90
2018-07-27T04:58:38.995Z,10.30
2018-07-27T04:59:38.936Z,9.70
2018-07-27T05:00:38.882Z,9.50
2018-07-27T05:01:38.821Z,10.90
2018-07-27T05:02:38.762Z,9.70
2018-07-27T05:03:38.702Z,10.40
2018-07-27T05:04:38.695Z,10.60
2018-07-27T05:05:38.585Z,10.40
2018-07-27T05:06:38.527Z,13.70
2018-07-27T05:07:38.467Z,8.90
2018-07-27T05:08:38.410Z,10.20
2018-07-27T05:09:38.348Z,10.00
2018-07-27T05:10:38.290Z,9.50
2018-07-27T05:11:38.233Z,9.40
2018-07-27T05:12:38.171Z,9.20
2018-07-27T05:13:38.113Z,10.10
2018-07-27T05:14:38.053Z,9.70
2018-07-27T05:15:37.996Z,10.00
2018-07-27T05:16:37.937Z,9.80
2018-07-27T05:17:37.879Z,10.80
2018-07-27T05:18:37.824Z,10.90
2018-07-27T05:19:37.761Z,10.10
2018-07-27T05:20:37.703Z,10.90
2018-07-27T05:21:37.643Z,9.70
2018-07-27T05:22:37.586Z,11.00
2018-07-27T05:23:37.524Z,10.60
2018-07-27T05:24:37.483Z,10.50
2018-07-27T05:25:37.408Z,10.50
2018-07-27T05:26:37.351Z,10.30
2018-07-27T05:27:37.292Z,11.30
2018-07-27T05:28:37.231Z,9.80
2018-07-27T05:29:37.173Z,9.60
2018-07-27T05:30:37.114Z,10.90
2018-07-27T05:31:37.055Z,10.40
2018-07-27T05:32:36.997Z,11.20
2018-07-27T05:33:36.937Z,11.90
2018-07-27T05:34:36.880Z,10.60
2018-07-27T05:35:36.818Z,11.00
2018-07-27T05:36:36.760Z,11.00
2018-07-27T05:37:36.700Z,11.70
2018-07-27T05:38:36.643Z,10.20
2018-07-27T05:39:36.584Z,11.00
2018-07-27T05:40:36.527Z,10.60
2018-07-27T05:41:36.467Z,12.30
2018-07-27T05:42:36.408Z,9.80
2018-07-27T05:43:36.349Z,10.50
2018-07-27T05:44:36.289Z,12.90
2018-07-27T05:45:36.234Z,9.80
2018-07-27T05:46:36.171Z,10.70
2018-07-27T05:47:36.114Z,10.70
2018-07-27T05:48:36.057Z,10.00
2018-07-27T05:49:35.995Z,10.00
2018-07-27T05:50:35.937Z,10.10
2018-07-27T05:51:35.878Z,10.00
2018-07-27T05:52:35.827Z,11.10
2018-07-27T05:53:35.764Z,10.60
2018-07-27T05:54:35.703Z,10.00
2018-07-27T05:55:35.643Z,10.30
2018-07-27T05:56:35.587Z,13.40
2018-07-27T05:57:35.528Z,9.60
2018-07-27T05:58:35.468Z,10.80
2018-07-27T05:59:35.411Z,9.50
2018-07-27T06:00:35.353Z,10.60
2018-07-27T06:01:35.294Z,10.60
2018-07-27T06:02:35.246Z,13.00
2018-07-27T06:03:35.174Z,10.80
2018-07-27T06:04:35.117Z,11.70
2018-07-27T06:05:35.063Z,12.90
2018-07-27T06:06:35.000Z,12.30
2018-07-27T06:07:34.941Z,11.00
2018-07-27T06:08:34.888Z,12.10
2018-07-27T06:09:34.826Z,9.50
2018-07-27T06:10:34.790Z,9.80
2018-07-27T06:11:34.709Z,10.70
2018-07-27T06:12:34.651Z,12.10
2018-07-27T06:13:34.595Z,12.40
2018-07-27T06:14:34.563Z,11.00
2018-07-27T06:15:34.475Z,11.40
2018-07-27T06:16:34.416Z,9.60
2018-07-27T06:17:34.359Z,11.00
2018-07-27T06:18:34.302Z,13.60
2018-07-27T06:19:34.247Z,10.30
2018-07-27T06:20:34.185Z,13.10
2018-07-27T06:21:34.128Z,12.30
2018-07-27T06:22:34.069Z,12.00
2018-07-27T06:23:34.011Z,9.10
2018-07-27T06:24:33.956Z,11.00
2018-07-27T06:25:33.907Z,10.80
2018-07-27T06:26:33.888Z,9.80
2018-07-27T06:27:33.777Z,10.50
2018-07-27T06:28:33.720Z,9.80
2018-07-27T06:29:33.664Z,10.00
2018-07-27T06:30:33.605Z,9.00
2018-07-27T06:31:33.545Z,10.30
2018-07-27T06:32:33.490Z,9.60
2018-07-27T06:33:33.430Z,8.70
2018-07-27T06:34:33.373Z,9.30
2018-07-27T06:35:33.313Z,10.00
2018-07-27T06:36:33.255Z,8.50
2018-07-27T06:37:33.196Z,9.30
2018-07-27T06:38:33.139Z,9.10
2018-07-27T06:39:33.081Z,9.80
2018-07-27T06:40:33.025Z,9.80
2018-07-27T06:41:32.965Z,11.40
2018-07-27T06:42:32.907Z,9.90
2018-07-27T06:43:32.853Z,10.10
2018-07-27T06:44:32.795Z,9.10
2018-07-27T06:45:32.756Z,10.60
2018-07-27T06:46:32.676Z,9.40
2018-07-27T06:47:32.618Z,11.10
2018-07-27T06:48:32.559Z,10.10
2018-07-27T06:49:32.504Z,9.80
2018-07-27T06:50:32.445Z,9.90
2018-07-27T06:51:32.389Z,8.90
2018-07-27T06:52:32.335Z,8.90
2018-07-27T06:53:32.272Z,9.40
2018-07-27T06:54:32.217Z,10.40
2018-07-27T06:55:32.157Z,10.00
2018-07-27T06:56:32.099Z,11.00
2018-07-27T06:57:32.043Z,10.40
2018-07-27T06:58:31.987Z,9.60
2018-07-27T06:59:31.925Z,9.90
2018-07-27T07:00:31.870Z,9.20
2018-07-27T07:01:31.812Z,10.20
2018-07-27T07:02:31.756Z,10.50
2018-07-27T07:03:31.709Z,11.60
2018-07-27T07:04:31.640Z,11.70
2018-07-27T07:05:31.585Z,11.90
2018-07-27T07:06:31.533Z,9.90
2018-07-27T07:07:31.468Z,9.60
2018-07-27T07:08:31.410Z,9.50
2018-07-27T07:09:31.355Z,10.80
2018-07-27T07:10:31.298Z,9.60
2018-07-27T07:11:31.238Z,9.20
2018-07-27T07:12:31.182Z,9.30
2018-07-27T07:13:31.125Z,9.40
2018-07-27T07:14:31.102Z,8.70
2018-07-27T07:15:31.011Z,8.80
2018-07-27T07:16:30.955Z,8.70
2018-07-27T07:17:30.899Z,8.70
2018-07-27T07:18:30.838Z,8.90
2018-07-27T07:19:30.782Z,8.80
2018-07-27T07:20:30.725Z,9.10
2018-07-27T07:21:30.668Z,9.20
2018-07-27T07:22:30.610Z,9.40
2018-07-27T07:23:30.552Z,8.70
2018-07-27T07:24:30.503Z,9.10
2018-07-27T07:25:30.552Z,12.60
2018-07-27T07:26:30.382Z,8.30
2018-07-27T07:27:30.325Z,7.80
2018-07-27T07:28:30.267Z,8.20
2018-07-27T07:29:30.210Z,11.20
2018-07-27T07:30:30.157Z,7.70
2018-07-27T07:31:30.095Z,8.50
2018-07-27T07:32:30.042Z,9.00
2018-07-27T07:33:29.982Z,8.40
2018-07-27T07:34:29.926Z,8.90
2018-07-27T07:35:29.868Z,8.00
2018-07-27T07:36:29.812Z,10.60
2018-07-27T07:37:29.753Z,8.40
2018-07-27T07:38:29.698Z,7.60
2018-07-27T07:39:29.637Z,8.10
2018-07-27T07:40:29.585Z,9.70
2018-07-27T07:41:29.532Z,8.60
2018-07-27T07:42:29.473Z,10.20
2018-07-27T07:43:29.412Z,7.50
2018-07-27T07:44:29.357Z,9.10
2018-07-27T07:45:29.300Z,8.40
2018-07-27T07:46:29.243Z,8.20
2018-07-27T07:47:29.187Z,8.80
2018-07-27T07:48:29.133Z,7.60
2018-07-27T07:49:29.128Z,10.50
2018-07-27T07:50:29.019Z,10.90
2018-07-27T07:51:28.960Z,8.10
2018-07-27T07:52:28.903Z,9.90
2018-07-27T07:53:28.847Z,9.20
2018-07-27T07:54:28.791Z,8.70
2018-07-27T07:55:28.736Z,9.20
2018-07-27T07:56:28.678Z,9.70
2018-07-27T07:57:28.621Z,8.50
2018-07-27T07:58:28.590Z,9.00
2018-07-27T07:59:28.510Z,7.90
2018-07-27T08:00:28.454Z,9.70
2018-07-27T08:01:28.402Z,8.80
2018-07-27T08:02:28.339Z,8.30
2018-07-27T08:03:28.283Z,9.60
2018-07-27T08:04:28.225Z,8.00
2018-07-27T08:05:28.175Z,8.10
2018-07-27T08:06:28.114Z,6.50
2018-07-27T08:07:28.056Z,7.50
2018-07-27T08:08:28.000Z,7.70
2018-07-27T08:09:27.948Z,7.00
2018-07-27T08:10:27.887Z,6.10
2018-07-27T08:11:27.835Z,7.80
2018-07-27T08:12:27.782Z,6.80
2018-07-27T08:13:27.717Z,6.50
2018-07-27T08:14:27.678Z,5.70
2018-07-27T08:15:27.605Z,5.00
2018-07-27T08:16:27.549Z,5.20
2018-07-27T08:17:27.526Z,5.80
2018-07-27T08:18:27.438Z,6.00
2018-07-27T08:19:27.383Z,6.10
2018-07-27T08:20:27.324Z,5.00
2018-07-27T08:21:27.269Z,5.20
2018-07-27T08:22:27.214Z,6.10
2018-07-27T08:23:27.156Z,5.30
2018-07-27T08:24:27.103Z,5.20
2018-07-27T08:25:27.048Z,4.80
2018-07-27T08:26:27.006Z,5.50
2018-07-27T08:27:26.934Z,5.80
2018-07-27T08:28:26.878Z,4.70
2018-07-27T08:29:26.826Z,5.90
2018-07-27T08:30:26.767Z,4.90
2018-07-27T08:31:26.713Z,5.10
2018-07-27T08:32:26.655Z,4.90
2018-07-27T08:33:26.599Z,5.30
2018-07-27T08:34:26.544Z,4.60
2018-07-27T08:35:26.488Z,5.10
2018-07-27T08:36:26.431Z,5.50
2018-07-27T08:37:26.377Z,5.90
2018-07-27T08:38:26.322Z,5.30
2018-07-27T08:39:26.267Z,5.00
2018-07-27T08:40:26.212Z,4.80
2018-07-27T08:41:26.156Z,5.60
2018-07-27T08:42:26.101Z,5.10
2018-07-27T08:43:26.043Z,5.00
2018-07-27T08:44:25.988Z,4.90
2018-07-27T08:45:25.931Z,4.70
2018-07-27T08:46:25.878Z,4.60
2018-07-27T08:47:25.822Z,4.70
2018-07-27T08:48:25.772Z,4.90
2018-07-27T08:49:25.712Z,4.60
2018-07-27T08:50:25.657Z,5.00
2018-07-27T08:51:25.603Z,4.80
2018-07-27T08:52:25.547Z,5.40
2018-07-27T08:53:25.493Z,4.90
2018-07-27T08:54:25.436Z,4.50
2018-07-27T08:55:25.379Z,4.70
2018-07-27T08:56:25.386Z,4.70
2018-07-27T08:57:25.270Z,5.10
2018-07-27T08:58:25.214Z,4.30
2018-07-27T08:59:25.159Z,5.50
2018-07-27T09:00:25.103Z,5.00
2018-07-27T09:01:25.053Z,4.80
2018-07-27T09:02:24.996Z,3.90
2018-07-27T09:03:24.937Z,5.70
2018-07-27T09:04:24.882Z,4.40
2018-07-27T09:05:24.857Z,4.40
2018-07-27T09:06:24.773Z,5.60
2018-07-27T09:07:24.717Z,4.60
2018-07-27T09:08:24.661Z,4.70
2018-07-27T09:09:24.606Z,4.50
2018-07-27T09:10:24.552Z,4.90
2018-07-27T09:11:24.494Z,4.90
2018-07-27T09:12:24.443Z,4.30
2018-07-27T09:13:24.386Z,5.00
2018-07-27T09:14:24.329Z,4.50
2018-07-27T09:15:24.275Z,4.30
2018-07-27T09:16:24.218Z,4.00
2018-07-27T09:17:24.265Z,4.40
2018-07-27T09:18:24.112Z,4.50
2018-07-27T09:19:24.052Z,4.40
2018-07-27T09:20:23.997Z,4.20
2018-07-27T09:21:23.942Z,4.00
2018-07-27T09:22:23.887Z,4.30
2018-07-27T09:23:23.831Z,4.80
2018-07-27T09:24:23.901Z,4.80
2018-07-27T09:25:23.836Z,3.90
2018-07-27T09:26:23.666Z,5.10
2018-07-27T09:27:23.619Z,4.10
2018-07-27T09:28:23.556Z,4.20
2018-07-27T09:29:23.503Z,4.70
2018-07-27T09:30:23.447Z,5.10
2018-07-27T09:31:23.389Z,4.10
2018-07-27T09:32:23.335Z,4.80
2018-07-27T09:33:23.281Z,4.10
2018-07-27T09:34:23.230Z,4.00
2018-07-27T09:35:23.225Z,4.60
2018-07-27T09:36:23.121Z,4.10
2018-07-27T09:37:23.061Z,4.90
2018-07-27T09:38:23.006Z,4.00
2018-07-27T09:39:22.955Z,4.40
2018-07-27T09:40:22.906Z,4.60
2018-07-27T09:41:22.841Z,4.30
2018-07-27T09:42:22.789Z,4.30
2018-07-27T09:43:22.731Z,4.70
2018-07-27T09:44:22.680Z,4.50
2018-07-27T09:45:22.625Z,3.80
2018-07-27T09:46:22.571Z,3.80
2018-07-27T09:47:22.518Z,4.10
2018-07-27T09:48:22.463Z,7.50
2018-07-27T09:49:22.411Z,5.00
2018-07-27T09:50:22.360Z,5.30
2018-07-27T09:51:22.306Z,4.00
2018-07-27T09:52:22.253Z,4.20
2018-07-27T09:53:22.201Z,3.90
2018-07-27T09:54:22.148Z,3.90
2018-07-27T09:55:22.096Z,4.10
2018-07-27T09:56:22.043Z,5.40
2018-07-27T09:57:22.005Z,3.80
2018-07-27T09:58:21.940Z,4.20
2018-07-27T09:59:21.890Z,3.80
2018-07-27T10:00:21.839Z,3.80
2018-07-27T10:01:21.786Z,3.80
2018-07-27T10:02:21.737Z,3.90
2018-07-27T10:03:21.688Z,3.70
2018-07-27T10:04:21.639Z,4.70
2018-07-27T10:05:21.584Z,4.20
2018-07-27T10:06:21.537Z,3.40
2018-07-27T10:07:21.487Z,3.50
2018-07-27T10:08:21.440Z,3.60
2018-07-27T10:09:21.389Z,3.90
2018-07-27T10:10:21.339Z,4.50
2018-07-27T10:11:21.288Z,4.60
2018-07-27T10:12:21.242Z,3.70
2018-07-27T10:13:21.196Z,3.90
2018-07-27T10:14:21.144Z,3.50
2018-07-27T10:15:21.104Z,3.60
2018-07-27T10:16:21.049Z,4.70
2018-07-27T10:17:20.999Z,3.30
2018-07-27T10:18:21.001Z,6.60
2018-07-27T10:19:20.935Z,3.70
2018-07-27T10:20:20.852Z,4.00
2018-07-27T10:21:20.803Z,3.60
2018-07-27T10:22:20.757Z,3.90
2018-07-27T10:23:20.706Z,3.70
2018-07-27T10:24:20.659Z,4.30
2018-07-27T10:25:20.612Z,3.60
2018-07-27T10:26:20.565Z,5.00
2018-07-27T10:27:20.530Z,4.10
2018-07-27T10:28:20.465Z,4.00
2018-07-27T10:29:20.417Z,6.10
2018-07-27T10:30:20.371Z,3.80
2018-07-27T10:31:20.325Z,6.90
2018-07-27T10:32:20.295Z,3.90
2018-07-27T10:33:20.225Z,3.70
2018-07-27T10:34:20.180Z,3.70
2018-07-27T10:35:20.128Z,3.60
2018-07-27T10:36:20.083Z,3.80
2018-07-27T10:37:20.033Z,3.80
2018-07-27T10:38:19.987Z,3.80
2018-07-27T10:39:19.936Z,3.70
2018-07-27T10:40:19.889Z,3.30
2018-07-27T10:41:19.842Z,3.60
2018-07-27T10:42:19.795Z,5.20
2018-07-27T10:43:19.744Z,3.80
2018-07-27T10:44:19.696Z,4.10
2018-07-27T10:45:19.648Z,4.20
2018-07-27T10:46:19.600Z,4.00
2018-07-27T10:47:19.551Z,4.70
2018-07-27T10:48:19.503Z,3.80
2018-07-27T10:49:19.455Z,4.40
2018-07-27T10:50:19.450Z,3.90
2018-07-27T10:51:19.358Z,3.80
2018-07-27T10:52:19.308Z,4.90
2018-07-27T10:53:19.263Z,4.50
2018-07-27T10:54:19.214Z,4.10
2018-07-27T10:55:19.167Z,4.00
2018-07-27T10:56:19.156Z,3.50
2018-07-27T10:57:19.066Z,4.20
2018-07-27T10:58:19.019Z,3.60
2018-07-27T10:59:18.967Z,3.60
2018-07-27T11:00:18.918Z,3.30
2018-07-27T11:01:18.872Z,3.50
2018-07-27T11:02:18.901Z,3.80
2018-07-27T11:03:18.773Z,3.10
2018-07-27T11:04:18.723Z,3.40
2018-07-27T11:05:18.676Z,3.70
2018-07-27T11:06:18.628Z,3.90
2018-07-27T11:07:18.579Z,3.60
2018-07-27T11:08:18.531Z,3.40
2018-07-27T11:09:18.490Z,3.70
2018-07-27T11:10:18.430Z,4.50
2018-07-27T11:11:18.383Z,4.00
2018-07-27T11:12:18.334Z,4.00
2018-07-27T11:13:18.284Z,3.80
2018-07-27T11:14:18.235Z,3.90
2018-07-27T11:15:18.239Z,3.80
2018-07-27T11:16:18.195Z,3.80
2018-07-27T11:17:18.134Z,6.30
2018-07-27T11:18:18.037Z,4.00
2018-07-27T11:19:17.986Z,4.30
2018-07-27T11:20:17.943Z,3.70
2018-07-27T11:21:17.886Z,4.50
2018-07-27T11:22:17.840Z,3.90
2018-07-27T11:23:17.788Z,4.90
2018-07-27T11:24:17.735Z,3.80
2018-07-27T11:25:17.685Z,4.20
2018-07-27T11:26:17.635Z,4.40
2018-07-27T11:27:17.582Z,3.50
2018-07-27T11:28:17.529Z,4.00
2018-07-27T11:29:17.481Z,3.60
2018-07-27T11:30:17.430Z,3.70
2018-07-27T11:31:17.377Z,4.60
2018-07-27T11:32:17.324Z,4.00
2018-07-27T11:33:17.273Z,3.80
2018-07-27T11:34:17.222Z,3.60
2018-07-27T11:35:17.167Z,4.40
2018-07-27T11:36:17.118Z,5.90
2018-07-27T11:37:17.109Z,3.80
2018-07-27T11:38:17.011Z,4.80
2018-07-27T11:39:16.959Z,3.90
2018-07-27T11:40:16.906Z,3.60
2018-07-27T11:41:16.853Z,3.80
2018-07-27T11:42:16.828Z,3.90
2018-07-27T11:43:16.745Z,4.20
2018-07-27T11:44:16.695Z,4.90
2018-07-27T11:45:16.643Z,3.90
2018-07-27T11:46:16.587Z,4.40
2018-07-27T11:47:16.537Z,4.60
2018-07-27T11:48:16.487Z,3.60
2018-07-27T11:49:16.468Z,4.00
2018-07-27T11:50:16.375Z,4.60
2018-07-27T11:51:16.322Z,4.80
2018-07-27T11:52:16.266Z,4.10
2018-07-27T11:53:16.213Z,4.40
2018-07-27T11:54:16.161Z,7.00
2018-07-27T11:55:16.105Z,3.90
2018-07-27T11:56:16.052Z,3.70
2018-07-27T11:57:15.997Z,5.00
2018-07-27T11:58:15.943Z,3.70
2018-07-27T11:59:15.888Z,4.20
2018-07-27T12:00:15.837Z,4.10
2018-07-27T12:01:15.782Z,4.30
2018-07-27T12:02:15.728Z,3.80
2018-07-27T12:03:15.672Z,4.10
2018-07-27T12:04:15.620Z,3.90
2018-07-27T12:05:15.565Z,3.80
2018-07-27T12:06:15.516Z,4.70
2018-07-27T12:07:15.459Z,5.80
2018-07-27T12:08:15.404Z,3.20
2018-07-27T12:09:15.352Z,3.90
2018-07-27T12:10:15.295Z,4.30
2018-07-27T12:11:15.238Z,4.00
2018-07-27T12:12:15.185Z,4.00
2018-07-27T12:13:15.137Z,4.40
2018-07-27T12:14:15.196Z,5.10
2018-07-27T12:15:15.288Z,4.20
2018-07-27T12:16:14.970Z,5.20
2018-07-27T12:17:14.913Z,3.90
2018-07-27T12:18:14.862Z,3.60
2018-07-27T12:19:14.808Z,3.70
2018-07-27T12:20:14.754Z,3.60
2018-07-27T12:21:14.756Z,3.60
2018-07-27T12:22:14.645Z,3.70
2018-07-27T12:23:14.588Z,3.20
2018-07-27T12:24:14.533Z,3.70
2018-07-27T12:25:14.479Z,3.50
2018-07-27T12:26:14.424Z,3.30
2018-07-27T12:27:14.371Z,3.10
2018-07-27T12:28:14.317Z,3.50
2018-07-27T12:29:14.263Z,3.60
2018-07-27T12:30:14.210Z,3.40
2018-07-27T12:31:14.151Z,4.10
2018-07-27T12:32:14.099Z,3.60
2018-07-27T12:33:14.044Z,3.50
2018-07-27T12:34:13.990Z,3.40
2018-07-27T12:35:13.937Z,3.70
2018-07-27T12:36:13.883Z,3.50
2018-07-27T12:37:13.827Z,3.70
2018-07-27T12:38:13.773Z,3.40
2018-07-27T12:39:13.720Z,3.50
2018-07-27T12:40:13.663Z,3.50
2018-07-27T12:41:13.606Z,3.10
2018-07-27T12:42:13.558Z,3.50
2018-07-27T12:43:13.502Z,3.60
2018-07-27T12:44:13.446Z,3.50
2018-07-27T12:45:13.392Z,3.50
2018-07-27T12:46:13.338Z,4.30
2018-07-27T12:47:13.284Z,3.80
2018-07-27T12:48:13.233Z,3.30
2018-07-27T12:49:13.179Z,3.50
2018-07-27T12:50:13.121Z,4.50
2018-07-27T12:51:13.119Z,3.00
2018-07-27T12:52:13.014Z,3.10
2018-07-27T12:53:12.956Z,4.60
2018-07-27T12:54:12.907Z,4.90
2018-07-27T12:55:12.849Z,4.10
2018-07-27T12:56:12.794Z,3.50
2018-07-27T12:57:12.743Z,3.50
2018-07-27T12:58:12.684Z,3.80
2018-07-27T12:59:12.631Z,3.70
2018-07-27T13:00:12.578Z,3.60
2018-07-27T13:01:12.523Z,3.20
2018-07-27T13:02:12.469Z,3.30
2018-07-27T13:03:12.412Z,3.70
2018-07-27T13:04:12.359Z,3.20
2018-07-27T13:05:12.368Z,3.30
2018-07-27T13:06:12.250Z,3.90
2018-07-27T13:07:12.196Z,3.40
2018-07-27T13:08:12.139Z,3.40
2018-07-27T13:09:12.088Z,3.50
2018-07-27T13:10:12.032Z,3.70
2018-07-27T13:11:11.978Z,4.30
2018-07-27T13:12:11.922Z,3.20